地図

経路データ

SID SEASON NUMBER BASIN SUBBASIN NAME ISO_TIME NATURE LAT LON WMO_WIND WMO_PRES WMO_AGENCY TRACK_TYPE DIST2LAND LANDFALL IFLAG USA_AGENCY USA_ATCF_ID USA_LAT USA_LON USA_RECORD USA_STATUS USA_WIND USA_PRES USA_SSHS USA_R34_NE USA_R34_SE USA_R34_SW USA_R34_NW USA_R50_NE USA_R50_SE USA_R50_SW USA_R50_NW USA_R64_NE USA_R64_SE USA_R64_SW USA_R64_NW USA_POCI USA_ROCI USA_RMW USA_EYE TOKYO_LAT TOKYO_LON TOKYO_GRADE TOKYO_WIND TOKYO_PRES TOKYO_R50_DIR TOKYO_R50_LONG TOKYO_R50_SHORT TOKYO_R30_DIR TOKYO_R30_LONG TOKYO_R30_SHORT TOKYO_LAND CMA_LAT CMA_LON CMA_CAT CMA_WIND CMA_PRES HKO_LAT HKO_LON HKO_CAT HKO_WIND HKO_PRES NEWDELHI_LAT NEWDELHI_LON NEWDELHI_GRADE NEWDELHI_WIND NEWDELHI_PRES NEWDELHI_CI NEWDELHI_DP NEWDELHI_POCI REUNION_LAT REUNION_LON REUNION_TYPE REUNION_WIND REUNION_PRES REUNION_TNUM REUNION_CI REUNION_RMW REUNION_R34_NE REUNION_R34_SE REUNION_R34_SW REUNION_R34_NW REUNION_R50_NE REUNION_R50_SE REUNION_R50_SW REUNION_R50_NW REUNION_R64_NE REUNION_R64_SE REUNION_R64_SW REUNION_R64_NW BOM_LAT BOM_LON BOM_TYPE BOM_WIND BOM_PRES BOM_TNUM BOM_CI BOM_RMW BOM_R34_NE BOM_R34_SE BOM_R34_SW BOM_R34_NW BOM_R50_NE BOM_R50_SE BOM_R50_SW BOM_R50_NW BOM_R64_NE BOM_R64_SE BOM_R64_SW BOM_R64_NW BOM_ROCI BOM_POCI BOM_EYE BOM_POS_METHOD BOM_PRES_METHOD NADI_LAT NADI_LON NADI_CAT NADI_WIND NADI_PRES WELLINGTON_LAT WELLINGTON_LON WELLINGTON_WIND WELLINGTON_PRES DS824_LAT DS824_LON DS824_STAGE DS824_WIND DS824_PRES TD9636_LAT TD9636_LON TD9636_STAGE TD9636_WIND TD9636_PRES TD9635_LAT TD9635_LON TD9635_WIND TD9635_PRES TD9635_ROCI NEUMANN_LAT NEUMANN_LON NEUMANN_CLASS NEUMANN_WIND NEUMANN_PRES MLC_LAT MLC_LON MLC_CLASS MLC_WIND MLC_PRES USA_GUST BOM_GUST BOM_GUST_PER REUNION_GUST REUNION_GUST_PER USA_SEAHGT USA_SEARAD_NE USA_SEARAD_SE USA_SEARAD_SW USA_SEARAD_NW STORM_SPEED STORM_DIR
1987035S12160 1987 12 SP MM UMA:VELI 1987-02-04 00:00:00 TS -12.4000 160.050 main 252 243 O_______O_O_O_ jtwc_sh SH141987 -12.2000 160.400 25 -1 -13.0000 159.000 30 997 -12.2000 160.400 1 25 -12.2000 160.400 TC 25 10 112
1987035S12160 1987 12 SP MM UMA:VELI 1987-02-04 03:00:00 TS -12.5908 160.532 main 246 229 P_______P_P_P_ SH141987 -12.4651 160.740 25 -1 -12.9906 159.873 30 997 -12.4425 160.774 1 25 -12.4651 160.740 TC 25 10 111
1987035S12160 1987 12 SP MM UMA:VELI 1987-02-04 06:00:00 TS -12.7670 161.012 30 997 wellington main 240 230 O_______O_P_O_ jtwc_sh SH141987 -12.7000 161.100 25 -1 -13.0000 160.700 30 997 -12.6679 161.149 1 25 -12.7000 161.100 TC 25 10 109
1987035S12160 1987 12 SP MM UMA:VELI 1987-02-04 09:00:00 TS -12.9154 161.485 main 237 236 P_______P_P_P_ SH141987 -12.8800 161.493 25 -1 -13.0424 161.432 30 997 -12.8592 161.524 1 25 -12.8800 161.493 TC 25 9 106
1987035S12160 1987 12 SP MM UMA:VELI 1987-02-04 12:00:00 TS -13.0250 161.925 30 997 wellington main 246 246 O_______O_O_O_ jtwc_sh SH141987 -13.0000 161.900 25 -1 -13.1000 162.000 30 997 -13.0000 161.900 1 25 -13.0000 161.900 TC 25 8 102
1987035S12160 1987 12 SP MM UMA:VELI 1987-02-04 15:00:00 TS -13.0845 162.309 main 257 257 P_______P_P_P_ SH141987 -13.0650 162.315 27 -1 -13.1271 162.330 32 996 -13.0809 162.274 1 27 -13.0650 162.315 TC 27 7 98
1987035S12160 1987 12 SP MM UMA:VELI 1987-02-04 18:00:00 TS -13.1306 162.660 35 995 wellington main 261 261 O_______O_P_O_ jtwc_sh SH141987 -13.1000 162.700 30 -1 -13.2000 162.600 35 995 -13.1225 162.638 1 30 -13.1000 162.700 TC 30 7 100
1987035S12160 1987 12 SP MM UMA:VELI 1987-02-04 21:00:00 TS -13.2057 163.023 main 279 279 P_______P_P_P_ SH141987 -13.1424 163.023 32 -1 -13.3852 163.065 37 992 -13.1528 162.983 1 32 -13.1424 163.023 TC 32 7 104
1987035S12160 1987 12 SP MM UMA:VELI 1987-02-05 00:00:00 TS -13.3000 163.350 40 990 wellington main 300 300 O_______O_O_O_ jtwc_sh SH141987 -13.2000 163.300 35 0 -13.6000 163.500 40 990 -13.2000 163.300 2 35 -13.2000 163.300 TC 35 6 109
1987035S12160 1987 12 SP MM UMA:VELI 1987-02-05 03:00:00 TS -13.4044 163.611 main 323 323 P_______P_P_P_ SH141987 -13.2850 163.558 37 0 -13.7649 163.745 42 988 -13.2829 163.583 2 37 -13.2850 163.558 TC 37 5 115
1987035S12160 1987 12 SP MM UMA:VELI 1987-02-05 06:00:00 TS -13.5224 163.834 45 987 wellington main 325 301 O_______O_P_O_ jtwc_sh SH141987 -13.4000 163.800 40 0 -13.9000 163.900 45 987 -13.3897 163.838 2 40 -13.4000 163.800 TC 40 5 119
1987035S12160 1987 12 SP MM UMA:VELI 1987-02-05 09:00:00 TS -13.6473 164.058 main 291 262 P_______P_P_P_ SH141987 -13.5350 164.050 42 0 -13.9925 164.058 47 986 -13.5267 164.074 2 42 -13.5350 164.050 TC 42 5 123
1987035S12160 1987 12 SP MM UMA:VELI 1987-02-05 12:00:00 TS -13.8000 164.275 50 985 wellington main 262 233 O_______O_O_O_ jtwc_sh SH141987 -13.7000 164.300 45 0 -14.1000 164.200 50 985 -13.7000 164.300 2 45 -13.7000 164.300 TC 45 5 128
1987035S12160 1987 12 SP MM UMA:VELI 1987-02-05 15:00:00 TS -13.9846 164.496 main 233 205 P_______P_P_P_ SH141987 -13.8775 164.558 50 0 -14.2775 164.335 55 980 -13.9059 164.532 2 50 -13.8775 164.558 TC 55 6 134
1987035S12160 1987 12 SP MM UMA:VELI 1987-02-05 18:00:00 TS -14.2118 164.714 60 975 wellington main 205 175 O_______O_P_O_ jtwc_sh SH141987 -14.1000 164.800 55 0 -14.5000 164.500 60 975 -14.1474 164.758 2 55 -14.1000 164.800 TC 65 7 140
1987035S12160 1987 12 SP MM UMA:VELI 1987-02-05 21:00:00 TS -14.4838 164.930 main 175 150 P_______P_P_P_ SH141987 -14.3849 165.000 60 0 -14.7500 164.742 65 970 -14.4152 164.979 2 60 -14.3849 165.000 TC 70 7 143
1987035S12160 1987 12 SP MM UMA:VELI 1987-02-06 00:00:00 TS -14.7750 165.150 70 965 wellington main 139 120 O_______O_O_O_ jtwc_sh SH141987 -14.7000 165.200 65 1 -15.0000 165.000 70 965 -14.7000 165.200 3 65 -14.7000 165.200 TC 75 7 142
1987035S12160 1987 12 SP MM UMA:VELI 1987-02-06 03:00:00 TS -15.0455 165.379 main 120 107 P_______P_P_P_ SH141987 -15.0000 165.450 67 1 -15.1924 165.193 75 960 -14.9896 165.425 3 66 -15.0000 165.450 TC 77 7 141
1987035S12160 1987 12 SP MM UMA:VELI 1987-02-06 06:00:00 TS -15.3231 165.613 80 955 wellington main 107 86 O_______O_P_O_ jtwc_sh SH141987 -15.3000 165.700 70 1 -15.4000 165.400 80 955 -15.2924 165.650 3 67 -15.3000 165.700 TC 80 7 142
1987035S12160 1987 12 SP MM UMA:VELI 1987-02-06 09:00:00 TS -15.6247 165.846 main 88 77 P_______P_P_P_ SH141987 -15.6075 165.908 70 1 -15.6850 165.692 82 950 -15.5990 165.875 3 68 -15.6075 165.908 TC 85 8 144
1987035S12160 1987 12 SP MM UMA:VELI 1987-02-06 12:00:00 TS -15.9250 166.075 85 945 wellington main 77 69 O_______O_O_O_ jtwc_sh SH141987 -15.9000 166.100 70 1 -16.0000 166.000 85 945 -15.9000 166.100 4 70 -15.9000 166.100 TC 90 7 143
1987035S12160 1987 12 SP MM UMA:VELI 1987-02-06 15:00:00 TS -16.1934 166.285 main 77 72 P_______P_P_P_ SH141987 -16.1500 166.293 72 1 -16.2999 166.243 87 942 -16.1739 166.313 4 71 -16.1500 166.293 TC 92 7 142
1987035S12160 1987 12 SP MM UMA:VELI 1987-02-06 18:00:00 TS -16.4606 166.507 90 940 wellington main 78 67 O_______O_P_O_ jtwc_sh SH141987 -16.4000 166.500 75 1 -16.6000 166.500 90 940 -16.4422 166.528 4 72 -16.4000 166.500 TC 95 7 140
1987035S12160 1987 12 SP MM UMA:VELI 1987-02-06 21:00:00 TS -16.7480 166.769 main 67 61 P_______P_P_P_ SH141987 -16.6925 166.743 75 1 -16.8925 166.835 90 940 -16.7145 166.754 4 73 -16.6925 166.743 TC 97 8 139
1987035S12160 1987 12 SP MM UMA:VELI 1987-02-07 00:00:00 TS -17.0500 167.050 90 940 wellington main 61 61 O_______O_O_O_ jtwc_sh SH141987 -17.0000 167.000 75 1 -17.2000 167.200 90 940 -17.0000 167.000 4 75 -17.0000 167.000 TC 100 8 139
1987035S12160 1987 12 SP MM UMA:VELI 1987-02-07 03:00:00 TS -17.3551 167.317 main 92 90 P_______P_P_P_ SH141987 -17.2924 167.235 70 1 -17.5500 167.558 85 947 -17.2858 167.239 4 70 -17.2924 167.235 TC 97 8 140
1987035S12160 1987 12 SP MM UMA:VELI 1987-02-07 06:00:00 TS -17.6723 167.601 80 955 wellington main 123 123 O_______O_P_O_ jtwc_sh SH141987 -17.6000 167.500 65 1 -17.9000 167.900 80 955 -17.5892 167.504 4 65 -17.6000 167.500 TC 95 9 139
1987035S12160 1987 12 SP MM UMA:VELI 1987-02-07 09:00:00 TS -17.9925 167.907 main 157 157 P_______P_P_P_ SH141987 -17.9349 167.820 60 0 -18.1772 168.171 75 960 -17.9230 167.817 4 60 -17.9349 167.820 TC 92 9 137
1987035S12160 1987 12 SP MM UMA:VELI 1987-02-07 12:00:00 TS -18.3500 168.275 70 965 wellington main 197 197 O_______O_O_O_ jtwc_sh SH141987 -18.3000 168.200 55 0 -18.5000 168.500 70 965 -18.3000 168.200 2 55 -18.3000 168.200 TC 90 11 136
1987035S12160 1987 12 SP MM UMA:VELI 1987-02-07 15:00:00 TS -18.7531 168.685 main 263 263 P_______P_P_P_ SH141987 -18.6698 168.606 50 0 -18.9394 168.946 65 970 -18.7337 168.583 2 50 -18.6698 168.606 TC 77 13 135
1987035S12160 1987 12 SP MM UMA:VELI 1987-02-07 18:00:00 TS -19.2271 169.212 60 975 wellington main 326 326 O_______O_P_O_ jtwc_sh SH141987 -19.1000 169.100 45 0 -19.5000 169.600 60 975 -19.2086 169.048 2 45 -19.1000 169.100 TC 65 16 132
1987035S12160 1987 12 SP MM UMA:VELI 1987-02-07 21:00:00 TS -19.7956 169.901 main 403 403 P_______P_P_P_ SH141987 -19.6197 169.690 40 0 -20.2387 170.583 55 980 -19.7043 169.640 2 40 -19.6197 169.690 TC 60 18 129
1987035S12160 1987 12 SP MM UMA:VELI 1987-02-08 00:00:00 TS -20.3750 170.700 50 985 wellington main 432 432 O_______O_O_O_ jtwc_sh SH141987 -20.2000 170.400 35 0 -20.9000 171.600 50 985 -20.2000 170.400 2 35 -20.2000 170.400 TC 55 19 126
1987035S12160 1987 12 SP MM UMA:VELI 1987-02-08 03:00:00 TS -20.8995 171.512 main 487 487 P_______P_P_P_ SH141987 -20.8358 171.130 32 -1 -21.2466 172.319 47 986 -20.6779 171.357 2 32 -20.8378 171.242 TC 52 18 122
1987035S12160 1987 12 SP MM UMA:VELI 1987-02-08 06:00:00 TS -21.3390 172.372 45 987 wellington main 566 564 O_______O_P_O_ jtwc_sh SH141987 -21.4000 172.100 30 -1 -21.4000 172.900 45 987 -21.1357 172.477 2 30 -21.4000 172.100 TC 50 18 115
1987035S12160 1987 12 SP MM UMA:VELI 1987-02-08 09:00:00 TS -21.6570 173.273 main 580 545 P_______P_P_P_ SH141987 -21.7666 173.439 27 -1 -21.4681 173.452 40 991 -21.5754 173.709 2 27 -21.7375 172.883 TC 47 16 111
1987035S12160 1987 12 SP MM UMA:VELI 1987-02-08 12:00:00 TS -21.9286 174.000 35 995 wellington main 547 547 O_______O_O_O_ jtwc_sh SH141987 -22.0000 175.000 25 -1 -21.5000 174.000 35 995 -22.0000 175.000 1 25 -22.0000 173.500 TC 45 9 144
1987035S12160 1987 12 SP MM UMA:VELI 1987-02-08 15:00:00 TS -22.3718 173.838 main 603 597 ____________P_ SH141987 -1 1 -22.3718 173.838 TC 42 8 174
1987035S12160 1987 12 SP MM UMA:VELI 1987-02-08 18:00:00 TS -22.7000 174.100 30 997 wellington main 613 606 ____________O_ -1 1 -22.7000 174.100 TC 40 8 129
1987035S12160 1987 12 SP MM UMA:VELI 1987-02-08 21:00:00 TS -22.8875 174.520 main 610 596 ____________P_ -1 1 -22.8875 174.520 TC 40 9 110
1987035S12160 1987 12 SP MM UMA:VELI 1987-02-09 00:00:00 TS -23.0000 175.000 35 995 wellington main 597 589 ____________O_ -1 -23.0000 175.000 TC 40 9 104
1987035S12160 1987 12 SP MM UMA:VELI 1987-02-09 03:00:00 TS -23.1075 175.508 main 589 582 ____________P_ -1 -23.1075 175.508 TC 37 9 102
1987035S12160 1987 12 SP MM UMA:VELI 1987-02-09 06:00:00 TS -23.2000 176.000 40 990 wellington main 582 575 ____________O_ -1 -23.2000 176.000 TC 35 9 102
1987035S12160 1987 12 SP MM UMA:VELI 1987-02-09 09:00:00 TS -23.2923 176.423 main 580 575 ____________P_ -1 -23.2923 176.423 TC 35 8 105
1987035S12160 1987 12 SP MM UMA:VELI 1987-02-09 12:00:00 TS -23.4000 176.800 40 990 wellington main 581 579 ____________O_ -1 -23.4000 176.800 TC 35 7 110
1987035S12160 1987 12 SP MM UMA:VELI 1987-02-09 15:00:00 TS -23.5425 177.172 main 586 586 ____________P_ -1 -23.5425 177.172 TC 35 7 115
1987035S12160 1987 12 SP MM UMA:VELI 1987-02-09 18:00:00 TS -23.7000 177.500 40 990 wellington main 605 604 ____________O_ -1 -23.7000 177.500 TC 35 6 121
1987035S12160 1987 12 SP MM UMA:VELI 1987-02-09 21:00:00 TS -23.8572 177.743 main 626 615 ____________P_ -1 -23.8572 177.743 TC 35 4 106
1987035S12160 1987 12 SP MM UMA:VELI 1987-02-10 00:00:00 TS -23.8200 177.960 40 990 wellington main 615 615 ____________O_ -1 -24.0000 178.000 TC 35 5 79
1987035S12160 1987 12 SP MM UMA:VELI 1987-02-10 03:00:00 TS -23.7647 178.281 main 615 615 ____________P_ -1 -24.0852 178.400 TC 35 6 94
1987035S12160 1987 12 SP MM UMA:VELI 1987-02-10 06:00:00 TS -23.8667 178.633 35 995 wellington main 627 627 ____________O_ -1 -24.2000 178.800 TC 35 9 118
1987035S12160 1987 12 SP MM UMA:VELI 1987-02-10 09:00:00 TS -24.1870 179.157 main 667 667 ____________P_ -1 -24.4346 179.035 TC 35 13 124
1987035S12160 1987 12 SP MM UMA:VELI 1987-02-10 12:00:00 TS -24.5667 179.767 30 997 wellington main 723 723 ____________O_ -1 -24.7000 179.300 TC 35 12 123
1987035S12160 1987 12 SP MM UMA:VELI 1987-02-10 15:00:00 TS -24.8516 180.294 main 769 769 ____________P_ -1 -24.9182 179.742 TC 32 10 119
1987035S12160 1987 12 SP MM UMA:VELI 1987-02-10 18:00:00 TS -25.0667 180.767 30 997 wellington main 806 ____________O_ -1 -25.1000 -179.700 TC 30 10 117

デジタル台風データ・検索

IBTrACS Databaseについて

本データベースは、米国NOAAが公開する1842年以降の世界の熱帯低気圧のベストトラックデータアーカイブInternational Best Track Archive for Climate Stewardship (IBTrACS)を、ウェブで閲覧しやすい形式に変換したものです。

最終更新日:2021-10-21